sensor_id;sensor_type;location;lat;lon;timestamp;temperature;humidity
4673;DHT22;61885;53.560;9.940;2023-06-22T00:00:46;19.90;72.10
4673;DHT22;61885;53.560;9.940;2023-06-22T00:03:16;19.90;72.20
4673;DHT22;61885;53.560;9.940;2023-06-22T00:05:46;19.90;72.00
4673;DHT22;61885;53.560;9.940;2023-06-22T00:08:20;19.90;72.30
4673;DHT22;61885;53.560;9.940;2023-06-22T00:10:49;19.80;72.50
4673;DHT22;61885;53.560;9.940;2023-06-22T00:13:19;19.70;72.90
4673;DHT22;61885;53.560;9.940;2023-06-22T00:15:48;19.60;73.40
4673;DHT22;61885;53.560;9.940;2023-06-22T00:18:18;19.60;73.20
4673;DHT22;61885;53.560;9.940;2023-06-22T00:20:47;19.80;73.10
4673;DHT22;61885;53.560;9.940;2023-06-22T00:23:20;19.70;73.30
4673;DHT22;61885;53.560;9.940;2023-06-22T00:25:50;19.60;73.80
4673;DHT22;61885;53.560;9.940;2023-06-22T00:28:20;19.70;73.90
4673;DHT22;61885;53.560;9.940;2023-06-22T00:30:49;19.70;73.60
4673;DHT22;61885;53.560;9.940;2023-06-22T00:33:19;19.80;73.50
4673;DHT22;61885;53.560;9.940;2023-06-22T00:35:49;19.80;73.60
4673;DHT22;61885;53.560;9.940;2023-06-22T00:38:21;19.70;74.20
4673;DHT22;61885;53.560;9.940;2023-06-22T00:40:51;19.70;74.10
4673;DHT22;61885;53.560;9.940;2023-06-22T00:43:20;19.80;74.00
4673;DHT22;61885;53.560;9.940;2023-06-22T00:45:50;19.80;74.00
4673;DHT22;61885;53.560;9.940;2023-06-22T00:48:20;19.80;74.10
4673;DHT22;61885;53.560;9.940;2023-06-22T00:50:49;19.70;74.10
4673;DHT22;61885;53.560;9.940;2023-06-22T00:53:23;19.60;74.80
4673;DHT22;61885;53.560;9.940;2023-06-22T00:55:52;19.50;74.90
4673;DHT22;61885;53.560;9.940;2023-06-22T00:58:22;19.50;74.90
4673;DHT22;61885;53.560;9.940;2023-06-22T01:00:51;19.60;75.10
4673;DHT22;61885;53.560;9.940;2023-06-22T01:03:21;19.60;74.90
4673;DHT22;61885;53.560;9.940;2023-06-22T01:05:51;19.60;74.90
4673;DHT22;61885;53.560;9.940;2023-06-22T01:08:31;19.60;75.00
4673;DHT22;61885;53.560;9.940;2023-06-22T01:11:09;19.50;75.10
4673;DHT22;61885;53.560;9.940;2023-06-22T01:13:44;19.50;75.30
4673;DHT22;61885;53.560;9.940;2023-06-22T01:16:17;19.60;75.10
4673;DHT22;61885;53.560;9.940;2023-06-22T01:18:48;19.60;75.00
4673;DHT22;61885;53.560;9.940;2023-06-22T01:21:23;19.50;75.30
4673;DHT22;61885;53.560;9.940;2023-06-22T01:24:07;19.50;75.30
4673;DHT22;61885;53.560;9.940;2023-06-22T01:26:43;19.40;75.30
4673;DHT22;61885;53.560;9.940;2023-06-22T01:29:19;19.40;75.40
4673;DHT22;61885;53.560;9.940;2023-06-22T01:31:51;19.30;75.90
4673;DHT22;61885;53.560;9.940;2023-06-22T01:34:21;19.30;76.00
4673;DHT22;61885;53.560;9.940;2023-06-22T01:36:51;19.30;76.00
4673;DHT22;61885;53.560;9.940;2023-06-22T01:39:22;19.30;76.00
4673;DHT22;61885;53.560;9.940;2023-06-22T01:41:52;19.30;76.10
4673;DHT22;61885;53.560;9.940;2023-06-22T01:44:25;19.30;76.10
4673;DHT22;61885;53.560;9.940;2023-06-22T01:46:55;19.30;76.10
4673;DHT22;61885;53.560;9.940;2023-06-22T01:49:25;19.30;76.30
4673;DHT22;61885;53.560;9.940;2023-06-22T01:51:55;19.30;76.40
4673;DHT22;61885;53.560;9.940;2023-06-22T01:54:25;19.20;76.50
4673;DHT22;61885;53.560;9.940;2023-06-22T01:56:54;19.10;76.90
4673;DHT22;61885;53.560;9.940;2023-06-22T01:59:28;19.10;76.70
4673;DHT22;61885;53.560;9.940;2023-06-22T02:02:04;19.00;77.00
4673;DHT22;61885;53.560;9.940;2023-06-22T02:04:41;19.00;77.30
4673;DHT22;61885;53.560;9.940;2023-06-22T02:07:15;18.90;77.30
4673;DHT22;61885;53.560;9.940;2023-06-22T02:09:48;18.90;77.50
4673;DHT22;61885;53.560;9.940;2023-06-22T02:12:22;19.00;77.40
4673;DHT22;61885;53.560;9.940;2023-06-22T02:14:56;19.00;77.00
4673;DHT22;61885;53.560;9.940;2023-06-22T02:17:27;19.00;77.30
4673;DHT22;61885;53.560;9.940;2023-06-22T02:20:01;19.10;77.10
4673;DHT22;61885;53.560;9.940;2023-06-22T02:22:35;19.10;77.00
4673;DHT22;61885;53.560;9.940;2023-06-22T02:25:04;19.00;77.10
4673;DHT22;61885;53.560;9.940;2023-06-22T02:27:34;18.90;77.40
4673;DHT22;61885;53.560;9.940;2023-06-22T02:30:10;18.90;77.60
4673;DHT22;61885;53.560;9.940;2023-06-22T02:32:41;18.90;77.90
4673;DHT22;61885;53.560;9.940;2023-06-22T02:35:11;18.90;77.80
4673;DHT22;61885;53.560;9.940;2023-06-22T02:37:41;18.90;77.70
4673;DHT22;61885;53.560;9.940;2023-06-22T02:40:11;19.00;77.70
4673;DHT22;61885;53.560;9.940;2023-06-22T02:42:40;18.90;77.90
4673;DHT22;61885;53.560;9.940;2023-06-22T02:45:12;18.70;78.20
4673;DHT22;61885;53.560;9.940;2023-06-22T02:47:42;18.60;78.40
4673;DHT22;61885;53.560;9.940;2023-06-22T02:50:11;18.70;78.40
4673;DHT22;61885;53.560;9.940;2023-06-22T02:52:41;18.80;78.20
4673;DHT22;61885;53.560;9.940;2023-06-22T02:55:11;18.80;78.20
4673;DHT22;61885;53.560;9.940;2023-06-22T02:57:40;18.70;78.30
4673;DHT22;61885;53.560;9.940;2023-06-22T03:00:16;18.70;78.40
4673;DHT22;61885;53.560;9.940;2023-06-22T03:02:47;18.70;78.50
4673;DHT22;61885;53.560;9.940;2023-06-22T03:05:17;18.70;78.60
4673;DHT22;61885;53.560;9.940;2023-06-22T03:07:47;18.80;78.60
4673;DHT22;61885;53.560;9.940;2023-06-22T03:10:16;18.60;78.60
4673;DHT22;61885;53.560;9.940;2023-06-22T03:12:46;18.70;78.50
4673;DHT22;61885;53.560;9.940;2023-06-22T03:15:18;18.70;78.80
4673;DHT22;61885;53.560;9.940;2023-06-22T03:17:48;18.50;79.20
4673;DHT22;61885;53.560;9.940;2023-06-22T03:20:17;18.40;79.70
4673;DHT22;61885;53.560;9.940;2023-06-22T03:22:47;18.50;79.70
4673;DHT22;61885;53.560;9.940;2023-06-22T03:25:17;18.40;79.80
4673;DHT22;61885;53.560;9.940;2023-06-22T03:27:46;18.40;80.10
4673;DHT22;61885;53.560;9.940;2023-06-22T03:30:18;18.50;80.00
4673;DHT22;61885;53.560;9.940;2023-06-22T03:32:48;18.30;80.20
4673;DHT22;61885;53.560;9.940;2023-06-22T03:35:17;18.40;80.20
4673;DHT22;61885;53.560;9.940;2023-06-22T03:37:47;18.50;80.10
4673;DHT22;61885;53.560;9.940;2023-06-22T03:40:16;18.50;80.00
4673;DHT22;61885;53.560;9.940;2023-06-22T03:42:46;18.40;79.90
4673;DHT22;61885;53.560;9.940;2023-06-22T03:45:18;18.40;79.90
4673;DHT22;61885;53.560;9.940;2023-06-22T03:47:48;18.50;80.20
4673;DHT22;61885;53.560;9.940;2023-06-22T03:50:17;18.40;80.20
4673;DHT22;61885;53.560;9.940;2023-06-22T03:52:47;18.40;80.30
4673;DHT22;61885;53.560;9.940;2023-06-22T03:55:19;18.50;80.20
4673;DHT22;61885;53.560;9.940;2023-06-22T03:57:48;18.50;80.10
4673;DHT22;61885;53.560;9.940;2023-06-22T04:00:22;18.50;80.20
4673;DHT22;61885;53.560;9.940;2023-06-22T04:02:52;18.60;80.10
4673;DHT22;61885;53.560;9.940;2023-06-22T04:05:21;18.50;79.90
4673;DHT22;61885;53.560;9.940;2023-06-22T04:07:51;18.60;80.10
4673;DHT22;61885;53.560;9.940;2023-06-22T04:10:20;18.60;80.10
4673;DHT22;61885;53.560;9.940;2023-06-22T04:12:50;18.60;80.00
4673;DHT22;61885;53.560;9.940;2023-06-22T04:15:22;18.70;80.00
4673;DHT22;61885;53.560;9.940;2023-06-22T04:17:52;18.70;79.80
4673;DHT22;61885;53.560;9.940;2023-06-22T04:20:21;18.70;79.70
4673;DHT22;61885;53.560;9.940;2023-06-22T04:22:52;18.80;79.70
4673;DHT22;61885;53.560;9.940;2023-06-22T04:25:22;18.80;79.40
4673;DHT22;61885;53.560;9.940;2023-06-22T04:27:51;18.90;78.80
4673;DHT22;61885;53.560;9.940;2023-06-22T04:30:24;18.90;78.60
4673;DHT22;61885;53.560;9.940;2023-06-22T04:32:53;18.90;78.60
4673;DHT22;61885;53.560;9.940;2023-06-22T04:35:25;19.10;78.20
4673;DHT22;61885;53.560;9.940;2023-06-22T04:37:57;19.20;77.90
4673;DHT22;61885;53.560;9.940;2023-06-22T04:40:27;19.20;77.50
4673;DHT22;61885;53.560;9.940;2023-06-22T04:42:57;19.20;77.40
4673;DHT22;61885;53.560;9.940;2023-06-22T04:45:31;19.20;77.60
4673;DHT22;61885;53.560;9.940;2023-06-22T04:48:02;19.20;77.60
4673;DHT22;61885;53.560;9.940;2023-06-22T04:50:31;19.20;77.50
4673;DHT22;61885;53.560;9.940;2023-06-22T04:53:01;19.20;77.40
4673;DHT22;61885;53.560;9.940;2023-06-22T04:55:32;19.30;77.20
4673;DHT22;61885;53.560;9.940;2023-06-22T04:58:04;19.50;76.70
4673;DHT22;61885;53.560;9.940;2023-06-22T05:00:36;19.50;76.90
4673;DHT22;61885;53.560;9.940;2023-06-22T05:03:05;19.70;76.20
4673;DHT22;61885;53.560;9.940;2023-06-22T05:05:37;19.60;76.10
4673;DHT22;61885;53.560;9.940;2023-06-22T05:08:07;19.70;76.00
4673;DHT22;61885;53.560;9.940;2023-06-22T05:10:36;19.70;75.80
4673;DHT22;61885;53.560;9.940;2023-06-22T05:13:06;19.70;75.50
4673;DHT22;61885;53.560;9.940;2023-06-22T05:15:38;19.70;75.70
4673;DHT22;61885;53.560;9.940;2023-06-22T05:18:08;19.70;75.90
4673;DHT22;61885;53.560;9.940;2023-06-22T05:20:38;19.70;75.80
4673;DHT22;61885;53.560;9.940;2023-06-22T05:23:07;20.00;74.90
4673;DHT22;61885;53.560;9.940;2023-06-22T05:25:37;20.10;74.40
4673;DHT22;61885;53.560;9.940;2023-06-22T05:28:06;20.20;73.40
4673;DHT22;61885;53.560;9.940;2023-06-22T05:30:40;20.20;72.30
4673;DHT22;61885;53.560;9.940;2023-06-22T05:33:09;20.10;73.00
4673;DHT22;61885;53.560;9.940;2023-06-22T05:35:39;20.00;73.20
4673;DHT22;61885;53.560;9.940;2023-06-22T05:38:09;19.90;73.50
4673;DHT22;61885;53.560;9.940;2023-06-22T05:40:38;20.10;73.10
4673;DHT22;61885;53.560;9.940;2023-06-22T05:43:08;20.30;72.50
4673;DHT22;61885;53.560;9.940;2023-06-22T05:45:40;20.40;72.30
4673;DHT22;61885;53.560;9.940;2023-06-22T05:48:09;20.40;72.50
4673;DHT22;61885;53.560;9.940;2023-06-22T05:50:39;20.30;72.50
4673;DHT22;61885;53.560;9.940;2023-06-22T05:53:08;20.40;72.80
4673;DHT22;61885;53.560;9.940;2023-06-22T05:55:38;20.60;71.90
4673;DHT22;61885;53.560;9.940;2023-06-22T05:58:07;20.60;71.60
4673;DHT22;61885;53.560;9.940;2023-06-22T06:00:40;20.80;70.40
4673;DHT22;61885;53.560;9.940;2023-06-22T06:03:10;21.00;67.80
4673;DHT22;61885;53.560;9.940;2023-06-22T06:05:43;21.10;66.80
4673;DHT22;61885;53.560;9.940;2023-06-22T06:08:14;21.20;66.30
4673;DHT22;61885;53.560;9.940;2023-06-22T06:10:43;21.30;66.40
4673;DHT22;61885;53.560;9.940;2023-06-22T06:13:13;21.20;65.80
4673;DHT22;61885;53.560;9.940;2023-06-22T06:15:45;21.20;66.60
4673;DHT22;61885;53.560;9.940;2023-06-22T06:18:14;21.40;66.00
4673;DHT22;61885;53.560;9.940;2023-06-22T06:20:44;21.50;65.90
4673;DHT22;61885;53.560;9.940;2023-06-22T06:23:14;21.70;65.80
4673;DHT22;61885;53.560;9.940;2023-06-22T06:25:43;21.80;65.00
4673;DHT22;61885;53.560;9.940;2023-06-22T06:28:13;21.80;65.10
4673;DHT22;61885;53.560;9.940;2023-06-22T06:30:46;21.80;65.20
4673;DHT22;61885;53.560;9.940;2023-06-22T06:33:16;21.60;66.00
4673;DHT22;61885;53.560;9.940;2023-06-22T06:35:45;21.70;65.70
4673;DHT22;61885;53.560;9.940;2023-06-22T06:38:15;21.80;66.30
4673;DHT22;61885;53.560;9.940;2023-06-22T06:40:44;21.80;65.40
4673;DHT22;61885;53.560;9.940;2023-06-22T06:43:15;21.70;66.00
4673;DHT22;61885;53.560;9.940;2023-06-22T06:45:47;21.90;65.80
4673;DHT22;61885;53.560;9.940;2023-06-22T06:48:17;21.90;65.40
4673;DHT22;61885;53.560;9.940;2023-06-22T06:50:46;21.80;65.20
4673;DHT22;61885;53.560;9.940;2023-06-22T06:53:16;21.90;65.20
4673;DHT22;61885;53.560;9.940;2023-06-22T06:55:46;22.00;64.90
4673;DHT22;61885;53.560;9.940;2023-06-22T06:58:15;21.90;64.50
4673;DHT22;61885;53.560;9.940;2023-06-22T07:00:48;21.80;65.10
4673;DHT22;61885;53.560;9.940;2023-06-22T07:03:18;21.90;64.70
4673;DHT22;61885;53.560;9.940;2023-06-22T07:05:47;22.00;64.50
4673;DHT22;61885;53.560;9.940;2023-06-22T07:08:17;22.10;64.20
4673;DHT22;61885;53.560;9.940;2023-06-22T07:10:46;22.10;63.90
4673;DHT22;61885;53.560;9.940;2023-06-22T07:13:16;22.10;64.00
4673;DHT22;61885;53.560;9.940;2023-06-22T07:15:48;22.00;64.30
4673;DHT22;61885;53.560;9.940;2023-06-22T07:18:18;22.00;64.10
4673;DHT22;61885;53.560;9.940;2023-06-22T07:20:47;22.40;64.00
4673;DHT22;61885;53.560;9.940;2023-06-22T07:23:17;22.50;62.80
4673;DHT22;61885;53.560;9.940;2023-06-22T07:25:46;22.50;62.50
4673;DHT22;61885;53.560;9.940;2023-06-22T07:28:16;22.40;63.00
4673;DHT22;61885;53.560;9.940;2023-06-22T07:30:48;22.50;62.70
4673;DHT22;61885;53.560;9.940;2023-06-22T07:33:18;22.50;63.10
4673;DHT22;61885;53.560;9.940;2023-06-22T07:35:47;22.50;62.20
4673;DHT22;61885;53.560;9.940;2023-06-22T07:38:18;22.70;62.50
4673;DHT22;61885;53.560;9.940;2023-06-22T07:40:48;22.80;62.40
4673;DHT22;61885;53.560;9.940;2023-06-22T07:43:19;23.10;61.90
4673;DHT22;61885;53.560;9.940;2023-06-22T07:45:52;23.20;61.20
4673;DHT22;61885;53.560;9.940;2023-06-22T07:48:21;23.30;61.40
4673;DHT22;61885;53.560;9.940;2023-06-22T07:50:51;23.40;61.30
4673;DHT22;61885;53.560;9.940;2023-06-22T07:53:21;23.50;61.90
4673;DHT22;61885;53.560;9.940;2023-06-22T07:55:51;23.50;60.30
4673;DHT22;61885;53.560;9.940;2023-06-22T07:58:20;23.70;59.80
4673;DHT22;61885;53.560;9.940;2023-06-22T08:00:52;23.70;59.90
4673;DHT22;61885;53.560;9.940;2023-06-22T08:03:22;23.70;60.10
4673;DHT22;61885;53.560;9.940;2023-06-22T08:05:51;23.60;60.10
4673;DHT22;61885;53.560;9.940;2023-06-22T08:08:21;23.20;60.40
4673;DHT22;61885;53.560;9.940;2023-06-22T08:10:50;23.50;60.70
4673;DHT22;61885;53.560;9.940;2023-06-22T08:13:20;23.60;60.40
4673;DHT22;61885;53.560;9.940;2023-06-22T08:15:52;23.70;60.30
4673;DHT22;61885;53.560;9.940;2023-06-22T08:18:22;23.90;60.10
4673;DHT22;61885;53.560;9.940;2023-06-22T08:20:51;24.20;58.80
4673;DHT22;61885;53.560;9.940;2023-06-22T08:23:21;24.00;59.60
4673;DHT22;61885;53.560;9.940;2023-06-22T08:25:50;24.10;59.80
4673;DHT22;61885;53.560;9.940;2023-06-22T08:28:20;24.00;58.50
4673;DHT22;61885;53.560;9.940;2023-06-22T08:30:52;24.00;59.20
4673;DHT22;61885;53.560;9.940;2023-06-22T08:33:22;24.10;58.80
4673;DHT22;61885;53.560;9.940;2023-06-22T08:35:55;24.30;58.70
4673;DHT22;61885;53.560;9.940;2023-06-22T08:38:24;24.50;57.20
4673;DHT22;61885;53.560;9.940;2023-06-22T08:40:54;24.40;56.50
4673;DHT22;61885;53.560;9.940;2023-06-22T08:43:23;24.30;56.80
4673;DHT22;61885;53.560;9.940;2023-06-22T08:45:55;24.10;57.30
4673;DHT22;61885;53.560;9.940;2023-06-22T08:48:25;24.00;56.90
4673;DHT22;61885;53.560;9.940;2023-06-22T08:50:54;23.90;55.90
4673;DHT22;61885;53.560;9.940;2023-06-22T08:53:24;23.70;56.60
4673;DHT22;61885;53.560;9.940;2023-06-22T08:55:53;23.60;56.40
4673;DHT22;61885;53.560;9.940;2023-06-22T08:58:23;23.90;56.10
4673;DHT22;61885;53.560;9.940;2023-06-22T09:00:55;24.20;55.10
4673;DHT22;61885;53.560;9.940;2023-06-22T09:03:27;24.30;54.80
4673;DHT22;61885;53.560;9.940;2023-06-22T09:05:59;24.00;55.70
4673;DHT22;61885;53.560;9.940;2023-06-22T09:08:28;24.20;56.40
4673;DHT22;61885;53.560;9.940;2023-06-22T09:10:58;24.30;56.20
4673;DHT22;61885;53.560;9.940;2023-06-22T09:13:29;24.50;56.60
4673;DHT22;61885;53.560;9.940;2023-06-22T09:16:02;24.40;56.50
4673;DHT22;61885;53.560;9.940;2023-06-22T09:18:32;24.60;56.00
4673;DHT22;61885;53.560;9.940;2023-06-22T09:21:02;24.70;55.90
4673;DHT22;61885;53.560;9.940;2023-06-22T09:23:32;24.90;56.00
4673;DHT22;61885;53.560;9.940;2023-06-22T09:26:02;24.90;55.30
4673;DHT22;61885;53.560;9.940;2023-06-22T09:28:32;24.90;54.90
4673;DHT22;61885;53.560;9.940;2023-06-22T09:31:04;24.80;55.90
4673;DHT22;61885;53.560;9.940;2023-06-22T09:33:35;24.90;55.80
4673;DHT22;61885;53.560;9.940;2023-06-22T09:36:05;24.90;55.20
4673;DHT22;61885;53.560;9.940;2023-06-22T09:38:35;24.90;55.90
4673;DHT22;61885;53.560;9.940;2023-06-22T09:41:04;25.10;55.70
4673;DHT22;61885;53.560;9.940;2023-06-22T09:43:34;25.20;55.00
4673;DHT22;61885;53.560;9.940;2023-06-22T09:46:06;25.10;55.50
4673;DHT22;61885;53.560;9.940;2023-06-22T09:48:36;25.30;55.40
4673;DHT22;61885;53.560;9.940;2023-06-22T09:51:05;25.40;55.20
4673;DHT22;61885;53.560;9.940;2023-06-22T09:53:35;25.40;55.20
4673;DHT22;61885;53.560;9.940;2023-06-22T09:56:04;25.40;55.10
4673;DHT22;61885;53.560;9.940;2023-06-22T09:58:37;25.30;53.80
4673;DHT22;61885;53.560;9.940;2023-06-22T10:01:09;25.10;54.70
4673;DHT22;61885;53.560;9.940;2023-06-22T10:03:41;25.10;54.20
4673;DHT22;61885;53.560;9.940;2023-06-22T10:06:10;25.20;54.50
4673;DHT22;61885;53.560;9.940;2023-06-22T10:08:40;25.50;54.50
4673;DHT22;61885;53.560;9.940;2023-06-22T10:11:10;25.60;54.70
4673;DHT22;61885;53.560;9.940;2023-06-22T10:13:39;25.60;54.70
4673;DHT22;61885;53.560;9.940;2023-06-22T10:16:11;25.70;55.40
4673;DHT22;61885;53.560;9.940;2023-06-22T10:18:41;25.50;54.70
4673;DHT22;61885;53.560;9.940;2023-06-22T10:21:10;25.50;55.20
4673;DHT22;61885;53.560;9.940;2023-06-22T10:23:40;25.50;55.20
4673;DHT22;61885;53.560;9.940;2023-06-22T10:26:09;25.80;54.70
4673;DHT22;61885;53.560;9.940;2023-06-22T10:28:39;26.00;54.50
4673;DHT22;61885;53.560;9.940;2023-06-22T10:31:11;26.10;54.40
4673;DHT22;61885;53.560;9.940;2023-06-22T10:33:40;26.30;54.10
4673;DHT22;61885;53.560;9.940;2023-06-22T10:36:11;26.40;54.30
4673;DHT22;61885;53.560;9.940;2023-06-22T10:38:40;26.60;53.80
4673;DHT22;61885;53.560;9.940;2023-06-22T10:41:10;26.70;53.80
4673;DHT22;61885;53.560;9.940;2023-06-22T10:43:39;26.60;52.80
4673;DHT22;61885;53.560;9.940;2023-06-22T10:46:12;26.70;53.10
4673;DHT22;61885;53.560;9.940;2023-06-22T10:48:41;26.50;53.30
4673;DHT22;61885;53.560;9.940;2023-06-22T10:51:11;26.70;53.40
4673;DHT22;61885;53.560;9.940;2023-06-22T10:53:40;26.50;53.50
4673;DHT22;61885;53.560;9.940;2023-06-22T10:56:10;26.70;53.30
4673;DHT22;61885;53.560;9.940;2023-06-22T10:58:39;27.00;52.60
4673;DHT22;61885;53.560;9.940;2023-06-22T11:01:11;27.00;52.40
4673;DHT22;61885;53.560;9.940;2023-06-22T11:03:41;27.10;52.00
4673;DHT22;61885;53.560;9.940;2023-06-22T11:06:10;27.30;51.50
4673;DHT22;61885;53.560;9.940;2023-06-22T11:08:44;27.20;51.60
4673;DHT22;61885;53.560;9.940;2023-06-22T11:11:13;27.30;51.50
4673;DHT22;61885;53.560;9.940;2023-06-22T11:13:44;27.10;51.80
4673;DHT22;61885;53.560;9.940;2023-06-22T11:16:16;27.00;52.00
4673;DHT22;61885;53.560;9.940;2023-06-22T11:18:45;27.20;52.00
4673;DHT22;61885;53.560;9.940;2023-06-22T11:21:15;27.20;52.00
4673;DHT22;61885;53.560;9.940;2023-06-22T11:23:45;27.20;52.10
4673;DHT22;61885;53.560;9.940;2023-06-22T11:26:15;27.50;51.70
4673;DHT22;61885;53.560;9.940;2023-06-22T11:28:45;27.80;51.20
4673;DHT22;61885;53.560;9.940;2023-06-22T11:31:18;27.40;50.90
4673;DHT22;61885;53.560;9.940;2023-06-22T11:33:47;27.00;52.40
4673;DHT22;61885;53.560;9.940;2023-06-22T11:36:17;27.30;52.40
4673;DHT22;61885;53.560;9.940;2023-06-22T11:38:47;27.80;51.80
4673;DHT22;61885;53.560;9.940;2023-06-22T11:41:16;28.30;51.10
4673;DHT22;61885;53.560;9.940;2023-06-22T11:43:46;28.80;49.70
4673;DHT22;61885;53.560;9.940;2023-06-22T11:46:18;28.60;49.90
4673;DHT22;61885;53.560;9.940;2023-06-22T11:48:47;29.10;49.10
4673;DHT22;61885;53.560;9.940;2023-06-22T11:51:17;29.20;48.80
4673;DHT22;61885;53.560;9.940;2023-06-22T11:53:46;29.30;49.00
4673;DHT22;61885;53.560;9.940;2023-06-22T11:56:16;28.90;49.80
4673;DHT22;61885;53.560;9.940;2023-06-22T11:58:46;28.90;49.10
4673;DHT22;61885;53.560;9.940;2023-06-22T12:01:18;28.60;50.00
4673;DHT22;61885;53.560;9.940;2023-06-22T12:03:48;28.70;49.60
4673;DHT22;61885;53.560;9.940;2023-06-22T12:06:17;28.70;50.60
4673;DHT22;61885;53.560;9.940;2023-06-22T12:08:47;28.80;49.90
4673;DHT22;61885;53.560;9.940;2023-06-22T12:11:17;29.00;49.60
4673;DHT22;61885;53.560;9.940;2023-06-22T12:13:46;29.10;49.20
4673;DHT22;61885;53.560;9.940;2023-06-22T12:16:18;29.00;49.30
4673;DHT22;61885;53.560;9.940;2023-06-22T12:18:48;29.00;49.20
4673;DHT22;61885;53.560;9.940;2023-06-22T12:21:18;29.10;48.90
4673;DHT22;61885;53.560;9.940;2023-06-22T12:23:48;29.20;48.90
4673;DHT22;61885;53.560;9.940;2023-06-22T12:26:17;29.10;49.10
4673;DHT22;61885;53.560;9.940;2023-06-22T12:28:47;29.20;48.80
4673;DHT22;61885;53.560;9.940;2023-06-22T12:31:19;29.50;48.20
4673;DHT22;61885;53.560;9.940;2023-06-22T12:33:49;29.50;48.00
4673;DHT22;61885;53.560;9.940;2023-06-22T12:36:18;29.30;48.50
4673;DHT22;61885;53.560;9.940;2023-06-22T12:38:48;28.80;49.20
4673;DHT22;61885;53.560;9.940;2023-06-22T12:41:18;28.60;50.00
4673;DHT22;61885;53.560;9.940;2023-06-22T12:43:47;28.60;50.10
4673;DHT22;61885;53.560;9.940;2023-06-22T12:46:20;28.90;49.20
4673;DHT22;61885;53.560;9.940;2023-06-22T12:48:49;29.20;48.70
4673;DHT22;61885;53.560;9.940;2023-06-22T12:51:22;29.10;49.10
4673;DHT22;61885;53.560;9.940;2023-06-22T12:53:52;29.00;49.20
4673;DHT22;61885;53.560;9.940;2023-06-22T12:56:21;29.10;49.20
4673;DHT22;61885;53.560;9.940;2023-06-22T12:58:51;29.10;49.00
4673;DHT22;61885;53.560;9.940;2023-06-22T13:01:23;29.20;49.20
4673;DHT22;61885;53.560;9.940;2023-06-22T13:03:53;29.90;47.60
4673;DHT22;61885;53.560;9.940;2023-06-22T13:06:22;29.80;47.80
4673;DHT22;61885;53.560;9.940;2023-06-22T13:08:52;29.40;48.80
4673;DHT22;61885;53.560;9.940;2023-06-22T13:11:21;29.30;48.80
4673;DHT22;61885;53.560;9.940;2023-06-22T13:13:51;29.60;48.60
4673;DHT22;61885;53.560;9.940;2023-06-22T13:16:23;29.60;48.60
4673;DHT22;61885;53.560;9.940;2023-06-22T13:18:53;29.50;48.60
4673;DHT22;61885;53.560;9.940;2023-06-22T13:21:22;29.20;49.60
4673;DHT22;61885;53.560;9.940;2023-06-22T13:23:52;28.80;49.80
4673;DHT22;61885;53.560;9.940;2023-06-22T13:26:21;28.90;50.20
4673;DHT22;61885;53.560;9.940;2023-06-22T13:28:52;28.90;50.10
4673;DHT22;61885;53.560;9.940;2023-06-22T13:31:24;28.90;50.60
4673;DHT22;61885;53.560;9.940;2023-06-22T13:33:54;28.50;50.70
4673;DHT22;61885;53.560;9.940;2023-06-22T13:36:23;28.40;51.10
4673;DHT22;61885;53.560;9.940;2023-06-22T13:38:53;28.40;51.10
4673;DHT22;61885;53.560;9.940;2023-06-22T13:41:22;28.20;51.30
4673;DHT22;61885;53.560;9.940;2023-06-22T13:43:52;28.00;52.50
4673;DHT22;61885;53.560;9.940;2023-06-22T13:46:24;28.20;52.00
4673;DHT22;61885;53.560;9.940;2023-06-22T13:48:54;28.70;50.00
4673;DHT22;61885;53.560;9.940;2023-06-22T13:51:23;28.80;50.50
4673;DHT22;61885;53.560;9.940;2023-06-22T13:53:53;29.10;50.40
4673;DHT22;61885;53.560;9.940;2023-06-22T13:56:22;29.50;48.80
4673;DHT22;61885;53.560;9.940;2023-06-22T13:58:52;29.30;49.20
4673;DHT22;61885;53.560;9.940;2023-06-22T14:01:24;29.70;48.20
4673;DHT22;61885;53.560;9.940;2023-06-22T14:03:53;29.80;49.00
4673;DHT22;61885;53.560;9.940;2023-06-22T14:06:23;29.60;49.10
4673;DHT22;61885;53.560;9.940;2023-06-22T14:08:52;30.10;47.70
4673;DHT22;61885;53.560;9.940;2023-06-22T14:11:22;30.00;47.70
4673;DHT22;61885;53.560;9.940;2023-06-22T14:13:52;30.00;47.90
4673;DHT22;61885;53.560;9.940;2023-06-22T14:16:24;29.00;49.50
4673;DHT22;61885;53.560;9.940;2023-06-22T14:18:53;28.90;50.70
4673;DHT22;61885;53.560;9.940;2023-06-22T14:21:23;29.00;50.10
4673;DHT22;61885;53.560;9.940;2023-06-22T14:23:53;28.70;50.80
4673;DHT22;61885;53.560;9.940;2023-06-22T14:26:22;28.60;50.20
4673;DHT22;61885;53.560;9.940;2023-06-22T14:28:53;28.70;50.10
4673;DHT22;61885;53.560;9.940;2023-06-22T14:31:26;28.50;50.60
4673;DHT22;61885;53.560;9.940;2023-06-22T14:33:55;28.50;50.80
4673;DHT22;61885;53.560;9.940;2023-06-22T14:36:25;28.30;51.50
4673;DHT22;61885;53.560;9.940;2023-06-22T14:38:54;27.80;52.50
4673;DHT22;61885;53.560;9.940;2023-06-22T14:41:24;27.80;52.80
4673;DHT22;61885;53.560;9.940;2023-06-22T14:43:53;27.70;52.80
4673;DHT22;61885;53.560;9.940;2023-06-22T14:46:25;27.50;52.90
4673;DHT22;61885;53.560;9.940;2023-06-22T14:48:55;27.30;53.80
4673;DHT22;61885;53.560;9.940;2023-06-22T14:51:24;27.30;53.70
4673;DHT22;61885;53.560;9.940;2023-06-22T14:53:54;27.40;53.60
4673;DHT22;61885;53.560;9.940;2023-06-22T14:56:23;27.60;53.30
4673;DHT22;61885;53.560;9.940;2023-06-22T14:58:53;27.10;54.20
4673;DHT22;61885;53.560;9.940;2023-06-22T15:01:25;27.20;54.40
4673;DHT22;61885;53.560;9.940;2023-06-22T15:03:54;27.20;54.30
4673;DHT22;61885;53.560;9.940;2023-06-22T15:06:24;27.00;54.70
4673;DHT22;61885;53.560;9.940;2023-06-22T15:08:54;27.10;54.50
4673;DHT22;61885;53.560;9.940;2023-06-22T15:11:23;26.80;55.00
4673;DHT22;61885;53.560;9.940;2023-06-22T15:13:53;26.90;55.20
4673;DHT22;61885;53.560;9.940;2023-06-22T15:16:25;26.80;55.00
4673;DHT22;61885;53.560;9.940;2023-06-22T15:18:54;26.40;55.70
4673;DHT22;61885;53.560;9.940;2023-06-22T15:21:24;26.30;56.40
4673;DHT22;61885;53.560;9.940;2023-06-22T15:23:54;26.40;56.30
4673;DHT22;61885;53.560;9.940;2023-06-22T15:26:23;26.50;56.40
4673;DHT22;61885;53.560;9.940;2023-06-22T15:28:53;26.30;56.70
4673;DHT22;61885;53.560;9.940;2023-06-22T15:31:26;26.40;56.50
4673;DHT22;61885;53.560;9.940;2023-06-22T15:33:55;26.40;56.20
4673;DHT22;61885;53.560;9.940;2023-06-22T15:36:25;26.40;56.30
4673;DHT22;61885;53.560;9.940;2023-06-22T15:38:55;26.40;56.00
4673;DHT22;61885;53.560;9.940;2023-06-22T15:41:24;26.60;56.10
4673;DHT22;61885;53.560;9.940;2023-06-22T15:43:55;26.60;55.60
4673;DHT22;61885;53.560;9.940;2023-06-22T15:46:27;26.50;56.00
4673;DHT22;61885;53.560;9.940;2023-06-22T15:48:56;26.40;56.20
4673;DHT22;61885;53.560;9.940;2023-06-22T15:51:26;26.40;55.60
4673;DHT22;61885;53.560;9.940;2023-06-22T15:53:56;26.30;56.20
4673;DHT22;61885;53.560;9.940;2023-06-22T15:56:26;26.20;56.30
4673;DHT22;61885;53.560;9.940;2023-06-22T15:58:56;26.20;56.50
4673;DHT22;61885;53.560;9.940;2023-06-22T16:01:28;26.30;56.60
4673;DHT22;61885;53.560;9.940;2023-06-22T16:03:58;26.20;56.70